sensor_id;sensor_type;location;lat;lon;timestamp;P1;durP1;ratioP1;P2;durP2;ratioP2
41343;SDS011;27089;50.022;7.604;2022-09-21T00:00:22;2.73;;;1.87;;
41343;SDS011;27089;50.022;7.604;2022-09-21T00:02:50;2.07;;;1.47;;
41343;SDS011;27089;50.022;7.604;2022-09-21T00:05:17;3.20;;;1.87;;
41343;SDS011;27089;50.022;7.604;2022-09-21T00:07:45;6.03;;;1.80;;
41343;SDS011;27089;50.022;7.604;2022-09-21T00:10:12;6.33;;;2.70;;
41343;SDS011;27089;50.022;7.604;2022-09-21T00:12:39;3.47;;;1.73;;
41343;SDS011;27089;50.022;7.604;2022-09-21T00:15:07;2.03;;;1.50;;
41343;SDS011;27089;50.022;7.604;2022-09-21T00:17:36;4.27;;;1.93;;
41343;SDS011;27089;50.022;7.604;2022-09-21T00:20:03;4.67;;;1.90;;
41343;SDS011;27089;50.022;7.604;2022-09-21T00:22:31;3.50;;;2.03;;
41343;SDS011;27089;50.022;7.604;2022-09-21T00:24:59;4.23;;;1.93;;
41343;SDS011;27089;50.022;7.604;2022-09-21T00:27:27;5.53;;;2.40;;
41343;SDS011;27089;50.022;7.604;2022-09-21T00:29:55;5.23;;;2.37;;
41343;SDS011;27089;50.022;7.604;2022-09-21T00:32:22;3.90;;;2.30;;
41343;SDS011;27089;50.022;7.604;2022-09-21T00:34:49;4.23;;;2.60;;
41343;SDS011;27089;50.022;7.604;2022-09-21T00:37:17;3.80;;;2.70;;
41343;SDS011;27089;50.022;7.604;2022-09-21T00:39:44;4.73;;;2.77;;
41343;SDS011;27089;50.022;7.604;2022-09-21T00:42:13;4.77;;;2.07;;
41343;SDS011;27089;50.022;7.604;2022-09-21T00:44:43;4.17;;;2.00;;
41343;SDS011;27089;50.022;7.604;2022-09-21T00:47:10;2.27;;;1.80;;
41343;SDS011;27089;50.022;7.604;2022-09-21T00:49:39;6.10;;;2.10;;
41343;SDS011;27089;50.022;7.604;2022-09-21T00:52:07;4.30;;;1.97;;
41343;SDS011;27089;50.022;7.604;2022-09-21T00:54:40;2.10;;;1.70;;
41343;SDS011;27089;50.022;7.604;2022-09-21T00:57:09;4.47;;;1.90;;
41343;SDS011;27089;50.022;7.604;2022-09-21T00:59:38;2.57;;;2.00;;
41343;SDS011;27089;50.022;7.604;2022-09-21T01:02:07;3.27;;;1.80;;
41343;SDS011;27089;50.022;7.604;2022-09-21T01:04:34;3.20;;;1.93;;
41343;SDS011;27089;50.022;7.604;2022-09-21T01:07:04;2.93;;;1.87;;
41343;SDS011;27089;50.022;7.604;2022-09-21T01:09:35;5.07;;;1.90;;
41343;SDS011;27089;50.022;7.604;2022-09-21T01:12:05;4.43;;;2.40;;
41343;SDS011;27089;50.022;7.604;2022-09-21T01:14:48;3.10;;;2.10;;
41343;SDS011;27089;50.022;7.604;2022-09-21T01:17:35;3.60;;;2.30;;
41343;SDS011;27089;50.022;7.604;2022-09-21T01:20:24;2.57;;;2.03;;
41343;SDS011;27089;50.022;7.604;2022-09-21T01:23:09;3.07;;;1.80;;
41343;SDS011;27089;50.022;7.604;2022-09-21T01:26:04;3.07;;;2.17;;
41343;SDS011;27089;50.022;7.604;2022-09-21T01:31:43;3.67;;;1.70;;
41343;SDS011;27089;50.022;7.604;2022-09-21T01:34:24;4.50;;;2.17;;
41343;SDS011;27089;50.022;7.604;2022-09-21T01:36:55;4.50;;;2.50;;
41343;SDS011;27089;50.022;7.604;2022-09-21T01:39:24;2.80;;;2.07;;
41343;SDS011;27089;50.022;7.604;2022-09-21T01:41:53;4.53;;;2.37;;
41343;SDS011;27089;50.022;7.604;2022-09-21T01:44:23;2.83;;;1.80;;
41343;SDS011;27089;50.022;7.604;2022-09-21T01:46:55;2.47;;;2.00;;
41343;SDS011;27089;50.022;7.604;2022-09-21T01:49:23;3.30;;;2.03;;
41343;SDS011;27089;50.022;7.604;2022-09-21T01:51:54;4.53;;;2.23;;
41343;SDS011;27089;50.022;7.604;2022-09-21T01:54:27;5.97;;;2.30;;
41343;SDS011;27089;50.022;7.604;2022-09-21T01:57:04;5.60;;;2.00;;
41343;SDS011;27089;50.022;7.604;2022-09-21T01:59:38;3.63;;;1.97;;
41343;SDS011;27089;50.022;7.604;2022-09-21T02:02:14;3.93;;;2.20;;
41343;SDS011;27089;50.022;7.604;2022-09-21T02:04:45;3.87;;;2.23;;
41343;SDS011;27089;50.022;7.604;2022-09-21T02:07:12;3.60;;;2.03;;
41343;SDS011;27089;50.022;7.604;2022-09-21T02:09:42;4.37;;;2.30;;
41343;SDS011;27089;50.022;7.604;2022-09-21T02:12:11;3.23;;;2.27;;
41343;SDS011;27089;50.022;7.604;2022-09-21T02:14:39;4.00;;;2.23;;
41343;SDS011;27089;50.022;7.604;2022-09-21T02:17:11;5.03;;;2.23;;
41343;SDS011;27089;50.022;7.604;2022-09-21T02:19:48;4.47;;;2.50;;
41343;SDS011;27089;50.022;7.604;2022-09-21T02:22:22;5.83;;;2.30;;
41343;SDS011;27089;50.022;7.604;2022-09-21T02:25:00;3.57;;;2.10;;
41343;SDS011;27089;50.022;7.604;2022-09-21T02:27:33;4.33;;;2.00;;
41343;SDS011;27089;50.022;7.604;2022-09-21T02:30:06;5.33;;;2.43;;
41343;SDS011;27089;50.022;7.604;2022-09-21T02:32:39;4.63;;;2.90;;
41343;SDS011;27089;50.022;7.604;2022-09-21T02:35:15;4.47;;;2.90;;
41343;SDS011;27089;50.022;7.604;2022-09-21T02:37:51;3.20;;;2.33;;
41343;SDS011;27089;50.022;7.604;2022-09-21T02:40:24;5.03;;;2.10;;
41343;SDS011;27089;50.022;7.604;2022-09-21T02:42:56;3.77;;;2.07;;
41343;SDS011;27089;50.022;7.604;2022-09-21T02:45:29;2.87;;;2.47;;
41343;SDS011;27089;50.022;7.604;2022-09-21T02:47:59;4.77;;;2.30;;
41343;SDS011;27089;50.022;7.604;2022-09-21T02:50:32;4.90;;;2.07;;
41343;SDS011;27089;50.022;7.604;2022-09-21T02:53:04;4.40;;;2.00;;
41343;SDS011;27089;50.022;7.604;2022-09-21T02:55:32;3.43;;;2.20;;
41343;SDS011;27089;50.022;7.604;2022-09-21T02:58:00;3.53;;;2.40;;
41343;SDS011;27089;50.022;7.604;2022-09-21T03:00:32;4.43;;;2.20;;
41343;SDS011;27089;50.022;7.604;2022-09-21T03:03:01;3.57;;;2.37;;
41343;SDS011;27089;50.022;7.604;2022-09-21T03:05:41;3.13;;;2.63;;
41343;SDS011;27089;50.022;7.604;2022-09-21T03:08:08;19.43;;;10.10;;
41343;SDS011;27089;50.022;7.604;2022-09-21T03:10:35;5.17;;;3.17;;
41343;SDS011;27089;50.022;7.604;2022-09-21T03:13:04;4.37;;;3.13;;
41343;SDS011;27089;50.022;7.604;2022-09-21T03:15:33;4.53;;;2.97;;
41343;SDS011;27089;50.022;7.604;2022-09-21T03:18:00;4.33;;;2.77;;
41343;SDS011;27089;50.022;7.604;2022-09-21T03:20:29;3.13;;;2.60;;
41343;SDS011;27089;50.022;7.604;2022-09-21T03:22:56;3.87;;;2.90;;
41343;SDS011;27089;50.022;7.604;2022-09-21T03:25:23;4.57;;;2.97;;
41343;SDS011;27089;50.022;7.604;2022-09-21T03:27:52;6.00;;;3.33;;
41343;SDS011;27089;50.022;7.604;2022-09-21T03:30:19;5.03;;;2.57;;
41343;SDS011;27089;50.022;7.604;2022-09-21T03:32:48;12.23;;;3.60;;
41343;SDS011;27089;50.022;7.604;2022-09-21T03:35:16;19.60;;;11.90;;
41343;SDS011;27089;50.022;7.604;2022-09-21T03:37:43;10.30;;;3.63;;
41343;SDS011;27089;50.022;7.604;2022-09-21T03:40:11;10.77;;;3.20;;
41343;SDS011;27089;50.022;7.604;2022-09-21T03:42:38;10.27;;;3.63;;
41343;SDS011;27089;50.022;7.604;2022-09-21T03:45:06;4.50;;;3.50;;
41343;SDS011;27089;50.022;7.604;2022-09-21T03:47:34;9.57;;;4.13;;
41343;SDS011;27089;50.022;7.604;2022-09-21T03:50:04;6.27;;;4.03;;
41343;SDS011;27089;50.022;7.604;2022-09-21T03:52:31;5.23;;;3.60;;
41343;SDS011;27089;50.022;7.604;2022-09-21T03:54:58;4.73;;;3.10;;
41343;SDS011;27089;50.022;7.604;2022-09-21T03:57:25;10.10;;;3.37;;
41343;SDS011;27089;50.022;7.604;2022-09-21T03:59:52;4.07;;;2.80;;
41343;SDS011;27089;50.022;7.604;2022-09-21T04:02:19;5.50;;;3.77;;
41343;SDS011;27089;50.022;7.604;2022-09-21T04:04:46;5.50;;;3.43;;
41343;SDS011;27089;50.022;7.604;2022-09-21T04:07:15;5.53;;;3.50;;
41343;SDS011;27089;50.022;7.604;2022-09-21T04:09:42;7.07;;;3.90;;
41343;SDS011;27089;50.022;7.604;2022-09-21T04:12:09;18.43;;;5.50;;
41343;SDS011;27089;50.022;7.604;2022-09-21T04:14:36;11.33;;;4.73;;
41343;SDS011;27089;50.022;7.604;2022-09-21T04:17:03;21.80;;;5.17;;
41343;SDS011;27089;50.022;7.604;2022-09-21T04:19:30;15.07;;;4.70;;
41343;SDS011;27089;50.022;7.604;2022-09-21T04:21:57;13.10;;;4.93;;
41343;SDS011;27089;50.022;7.604;2022-09-21T04:24:25;18.87;;;4.80;;
41343;SDS011;27089;50.022;7.604;2022-09-21T04:26:52;8.90;;;3.83;;
41343;SDS011;27089;50.022;7.604;2022-09-21T04:29:19;10.77;;;4.03;;
41343;SDS011;27089;50.022;7.604;2022-09-21T04:31:46;6.43;;;4.00;;
41343;SDS011;27089;50.022;7.604;2022-09-21T04:34:13;12.93;;;4.70;;
41343;SDS011;27089;50.022;7.604;2022-09-21T04:36:40;8.33;;;4.20;;
41343;SDS011;27089;50.022;7.604;2022-09-21T04:39:07;12.27;;;4.13;;
41343;SDS011;27089;50.022;7.604;2022-09-21T04:41:36;21.30;;;5.47;;
41343;SDS011;27089;50.022;7.604;2022-09-21T04:44:02;10.67;;;4.23;;
41343;SDS011;27089;50.022;7.604;2022-09-21T04:46:30;12.97;;;5.13;;
41343;SDS011;27089;50.022;7.604;2022-09-21T04:48:57;8.53;;;4.40;;
41343;SDS011;27089;50.022;7.604;2022-09-21T04:51:24;6.50;;;4.70;;
41343;SDS011;27089;50.022;7.604;2022-09-21T04:53:51;13.00;;;4.07;;
41343;SDS011;27089;50.022;7.604;2022-09-21T04:56:18;7.80;;;4.17;;
41343;SDS011;27089;50.022;7.604;2022-09-21T04:58:47;5.90;;;4.13;;
41343;SDS011;27089;50.022;7.604;2022-09-21T05:01:14;9.03;;;4.70;;
41343;SDS011;27089;50.022;7.604;2022-09-21T05:03:41;11.33;;;4.27;;
41343;SDS011;27089;50.022;7.604;2022-09-21T05:06:08;5.47;;;4.30;;
41343;SDS011;27089;50.022;7.604;2022-09-21T05:08:37;8.07;;;4.40;;
41343;SDS011;27089;50.022;7.604;2022-09-21T05:11:23;7.17;;;4.30;;
41343;SDS011;27089;50.022;7.604;2022-09-21T05:13:51;13.20;;;4.20;;
41343;SDS011;27089;50.022;7.604;2022-09-21T05:16:18;12.43;;;4.33;;
41343;SDS011;27089;50.022;7.604;2022-09-21T05:18:45;6.43;;;4.43;;
41343;SDS011;27089;50.022;7.604;2022-09-21T05:21:13;6.57;;;4.40;;
41343;SDS011;27089;50.022;7.604;2022-09-21T05:23:40;6.83;;;4.80;;
41343;SDS011;27089;50.022;7.604;2022-09-21T05:26:07;9.10;;;6.00;;
41343;SDS011;27089;50.022;7.604;2022-09-21T05:28:34;11.07;;;8.50;;
41343;SDS011;27089;50.022;7.604;2022-09-21T05:31:04;7.37;;;4.90;;
41343;SDS011;27089;50.022;7.604;2022-09-21T05:33:43;8.33;;;5.20;;
41343;SDS011;27089;50.022;7.604;2022-09-21T05:36:20;8.77;;;6.10;;
41343;SDS011;27089;50.022;7.604;2022-09-21T05:38:59;9.23;;;5.83;;
41343;SDS011;27089;50.022;7.604;2022-09-21T05:41:26;8.40;;;4.07;;
41343;SDS011;27089;50.022;7.604;2022-09-21T05:43:54;20.67;;;10.10;;
41343;SDS011;27089;50.022;7.604;2022-09-21T05:46:25;26.97;;;15.17;;
41343;SDS011;27089;50.022;7.604;2022-09-21T05:49:01;15.30;;;9.10;;
41343;SDS011;27089;50.022;7.604;2022-09-21T05:51:32;21.20;;;14.53;;
41343;SDS011;27089;50.022;7.604;2022-09-21T05:54:03;12.83;;;7.33;;
41343;SDS011;27089;50.022;7.604;2022-09-21T05:56:40;32.17;;;20.63;;
41343;SDS011;27089;50.022;7.604;2022-09-21T06:02:16;16.00;;;10.60;;
41343;SDS011;27089;50.022;7.604;2022-09-21T06:04:51;15.73;;;8.10;;
41343;SDS011;27089;50.022;7.604;2022-09-21T06:07:21;13.73;;;9.37;;
41343;SDS011;27089;50.022;7.604;2022-09-21T06:09:48;16.10;;;10.20;;
41343;SDS011;27089;50.022;7.604;2022-09-21T06:12:15;10.97;;;6.97;;
41343;SDS011;27089;50.022;7.604;2022-09-21T06:14:42;12.87;;;9.00;;
41343;SDS011;27089;50.022;7.604;2022-09-21T06:17:09;12.70;;;9.17;;
41343;SDS011;27089;50.022;7.604;2022-09-21T06:19:38;14.33;;;9.20;;
41343;SDS011;27089;50.022;7.604;2022-09-21T06:22:05;11.33;;;8.00;;
41343;SDS011;27089;50.022;7.604;2022-09-21T06:24:32;10.67;;;8.03;;
41343;SDS011;27089;50.022;7.604;2022-09-21T06:26:59;16.07;;;11.53;;
41343;SDS011;27089;50.022;7.604;2022-09-21T06:29:26;34.93;;;22.63;;
41343;SDS011;27089;50.022;7.604;2022-09-21T06:31:53;21.83;;;15.13;;
41343;SDS011;27089;50.022;7.604;2022-09-21T06:34:20;13.70;;;8.73;;
41343;SDS011;27089;50.022;7.604;2022-09-21T06:36:48;10.97;;;7.33;;
41343;SDS011;27089;50.022;7.604;2022-09-21T06:39:15;12.97;;;8.50;;
41343;SDS011;27089;50.022;7.604;2022-09-21T06:41:42;11.27;;;8.00;;
41343;SDS011;27089;50.022;7.604;2022-09-21T06:44:10;9.63;;;7.27;;
41343;SDS011;27089;50.022;7.604;2022-09-21T06:46:37;8.53;;;6.97;;
41343;SDS011;27089;50.022;7.604;2022-09-21T06:49:04;10.10;;;7.67;;
41343;SDS011;27089;50.022;7.604;2022-09-21T06:51:31;7.93;;;6.90;;
41343;SDS011;27089;50.022;7.604;2022-09-21T06:53:59;9.33;;;7.10;;
41343;SDS011;27089;50.022;7.604;2022-09-21T06:56:26;9.87;;;7.70;;
41343;SDS011;27089;50.022;7.604;2022-09-21T06:58:53;12.50;;;10.23;;
41343;SDS011;27089;50.022;7.604;2022-09-21T07:01:20;12.47;;;10.27;;
41343;SDS011;27089;50.022;7.604;2022-09-21T07:03:49;12.07;;;9.47;;
41343;SDS011;27089;50.022;7.604;2022-09-21T07:06:17;11.87;;;9.97;;
41343;SDS011;27089;50.022;7.604;2022-09-21T07:08:45;10.60;;;9.27;;
41343;SDS011;27089;50.022;7.604;2022-09-21T07:11:13;13.00;;;8.90;;
41343;SDS011;27089;50.022;7.604;2022-09-21T07:13:40;12.03;;;9.00;;
41343;SDS011;27089;50.022;7.604;2022-09-21T07:16:07;10.43;;;8.43;;
41343;SDS011;27089;50.022;7.604;2022-09-21T07:18:35;12.87;;;9.00;;
41343;SDS011;27089;50.022;7.604;2022-09-21T07:21:03;12.03;;;8.93;;
41343;SDS011;27089;50.022;7.604;2022-09-21T07:23:31;13.00;;;9.17;;
41343;SDS011;27089;50.022;7.604;2022-09-21T07:26:00;11.50;;;8.40;;
41343;SDS011;27089;50.022;7.604;2022-09-21T07:28:29;10.43;;;8.03;;
41343;SDS011;27089;50.022;7.604;2022-09-21T07:30:56;11.73;;;8.43;;
41343;SDS011;27089;50.022;7.604;2022-09-21T07:33:24;14.07;;;9.93;;
41343;SDS011;27089;50.022;7.604;2022-09-21T07:35:51;33.53;;;21.10;;
41343;SDS011;27089;50.022;7.604;2022-09-21T07:38:20;29.23;;;20.10;;
41343;SDS011;27089;50.022;7.604;2022-09-21T07:40:48;19.10;;;11.70;;
41343;SDS011;27089;50.022;7.604;2022-09-21T07:43:15;7.77;;;5.90;;
41343;SDS011;27089;50.022;7.604;2022-09-21T07:45:45;7.57;;;4.53;;
41343;SDS011;27089;50.022;7.604;2022-09-21T07:48:18;11.50;;;8.90;;
41343;SDS011;27089;50.022;7.604;2022-09-21T07:50:45;5.07;;;4.20;;
41343;SDS011;27089;50.022;7.604;2022-09-21T07:53:13;5.50;;;2.20;;
41343;SDS011;27089;50.022;7.604;2022-09-21T07:55:41;6.47;;;2.83;;
41343;SDS011;27089;50.022;7.604;2022-09-21T07:58:08;4.70;;;2.03;;
41343;SDS011;27089;50.022;7.604;2022-09-21T08:00:54;5.70;;;2.13;;
41343;SDS011;27089;50.022;7.604;2022-09-21T08:03:21;7.83;;;2.00;;
41343;SDS011;27089;50.022;7.604;2022-09-21T08:05:48;3.53;;;1.43;;
41343;SDS011;27089;50.022;7.604;2022-09-21T08:08:16;3.63;;;1.47;;
41343;SDS011;27089;50.022;7.604;2022-09-21T08:10:44;4.53;;;1.40;;
41343;SDS011;27089;50.022;7.604;2022-09-21T08:13:11;3.70;;;1.90;;
41343;SDS011;27089;50.022;7.604;2022-09-21T08:15:38;5.87;;;1.53;;
41343;SDS011;27089;50.022;7.604;2022-09-21T08:18:06;2.27;;;1.27;;
41343;SDS011;27089;50.022;7.604;2022-09-21T08:20:33;5.60;;;1.30;;
41343;SDS011;27089;50.022;7.604;2022-09-21T08:23:00;2.35;;;1.27;;
41343;SDS011;27089;50.022;7.604;2022-09-21T08:25:27;3.63;;;1.30;;
41343;SDS011;27089;50.022;7.604;2022-09-21T08:27:56;3.67;;;1.33;;
41343;SDS011;27089;50.022;7.604;2022-09-21T08:30:24;5.35;;;1.23;;
41343;SDS011;27089;50.022;7.604;2022-09-21T08:32:53;5.00;;;1.60;;
41343;SDS011;27089;50.022;7.604;2022-09-21T08:35:21;6.05;;;2.05;;
41343;SDS011;27089;50.022;7.604;2022-09-21T08:37:51;4.43;;;1.50;;
41343;SDS011;27089;50.022;7.604;2022-09-21T08:40:19;4.38;;;1.63;;
41343;SDS011;27089;50.022;7.604;2022-09-21T08:42:49;4.07;;;1.60;;
41343;SDS011;27089;50.022;7.604;2022-09-21T08:45:21;4.57;;;1.80;;
41343;SDS011;27089;50.022;7.604;2022-09-21T08:47:55;3.05;;;1.30;;
41343;SDS011;27089;50.022;7.604;2022-09-21T08:50:29;3.28;;;1.30;;
41343;SDS011;27089;50.022;7.604;2022-09-21T08:53:01;2.47;;;1.10;;
41343;SDS011;27089;50.022;7.604;2022-09-21T08:55:31;4.38;;;1.33;;
41343;SDS011;27089;50.022;7.604;2022-09-21T08:57:59;2.88;;;1.20;;
41343;SDS011;27089;50.022;7.604;2022-09-21T09:00:26;4.43;;;1.20;;
41343;SDS011;27089;50.022;7.604;2022-09-21T09:03:12;4.78;;;1.20;;
41343;SDS011;27089;50.022;7.604;2022-09-21T09:05:51;1.92;;;1.15;;
41343;SDS011;27089;50.022;7.604;2022-09-21T09:11:21;3.78;;;1.00;;
41343;SDS011;27089;50.022;7.604;2022-09-21T09:17:04;3.88;;;1.17;;
41343;SDS011;27089;50.022;7.604;2022-09-21T09:19:46;3.70;;;1.05;;
41343;SDS011;27089;50.022;7.604;2022-09-21T09:22:19;3.42;;;1.10;;
41343;SDS011;27089;50.022;7.604;2022-09-21T09:24:51;3.50;;;1.23;;
41343;SDS011;27089;50.022;7.604;2022-09-21T09:27:21;2.58;;;1.30;;
41343;SDS011;27089;50.022;7.604;2022-09-21T09:29:54;4.43;;;1.13;;
41343;SDS011;27089;50.022;7.604;2022-09-21T09:32:28;2.50;;;1.10;;
41343;SDS011;27089;50.022;7.604;2022-09-21T09:35:00;3.35;;;1.05;;
41343;SDS011;27089;50.022;7.604;2022-09-21T09:37:34;2.80;;;1.00;;
41343;SDS011;27089;50.022;7.604;2022-09-21T09:40:07;3.28;;;1.00;;
41343;SDS011;27089;50.022;7.604;2022-09-21T09:42:40;2.20;;;0.75;;
41343;SDS011;27089;50.022;7.604;2022-09-21T09:45:35;2.47;;;0.85;;
41343;SDS011;27089;50.022;7.604;2022-09-21T09:48:13;2.83;;;0.98;;
41343;SDS011;27089;50.022;7.604;2022-09-21T09:50:51;1.85;;;0.80;;
41343;SDS011;27089;50.022;7.604;2022-09-21T09:53:21;2.88;;;0.80;;
41343;SDS011;27089;50.022;7.604;2022-09-21T09:55:51;3.20;;;0.80;;
41343;SDS011;27089;50.022;7.604;2022-09-21T09:58:20;2.85;;;0.88;;
41343;SDS011;27089;50.022;7.604;2022-09-21T10:00:49;2.40;;;0.95;;
41343;SDS011;27089;50.022;7.604;2022-09-21T10:03:19;2.00;;;0.98;;
41343;SDS011;27089;50.022;7.604;2022-09-21T10:05:47;2.45;;;0.90;;
41343;SDS011;27089;50.022;7.604;2022-09-21T10:08:37;1.45;;;0.75;;
41343;SDS011;27089;50.022;7.604;2022-09-21T10:11:07;1.40;;;0.82;;
41343;SDS011;27089;50.022;7.604;2022-09-21T10:13:35;4.43;;;1.20;;
41343;SDS011;27089;50.022;7.604;2022-09-21T10:16:04;2.60;;;0.95;;
41343;SDS011;27089;50.022;7.604;2022-09-21T10:18:37;2.08;;;1.02;;
41343;SDS011;27089;50.022;7.604;2022-09-21T10:21:07;1.98;;;0.70;;
41343;SDS011;27089;50.022;7.604;2022-09-21T10:23:42;2.00;;;0.80;;
41343;SDS011;27089;50.022;7.604;2022-09-21T10:26:14;6.18;;;2.60;;
41343;SDS011;27089;50.022;7.604;2022-09-21T10:28:56;10.07;;;5.78;;
41343;SDS011;27089;50.022;7.604;2022-09-21T10:31:24;2.08;;;0.85;;
41343;SDS011;27089;50.022;7.604;2022-09-21T10:33:54;2.10;;;1.10;;
41343;SDS011;27089;50.022;7.604;2022-09-21T10:36:33;1.90;;;0.90;;
41343;SDS011;27089;50.022;7.604;2022-09-21T10:39:18;2.37;;;0.93;;
41343;SDS011;27089;50.022;7.604;2022-09-21T10:41:48;2.53;;;0.80;;
41343;SDS011;27089;50.022;7.604;2022-09-21T10:44:20;2.47;;;0.97;;
41343;SDS011;27089;50.022;7.604;2022-09-21T10:46:49;3.00;;;1.00;;
41343;SDS011;27089;50.022;7.604;2022-09-21T10:49:19;3.07;;;0.90;;
41343;SDS011;27089;50.022;7.604;2022-09-21T10:51:48;2.83;;;0.87;;
41343;SDS011;27089;50.022;7.604;2022-09-21T10:54:20;3.83;;;1.10;;
41343;SDS011;27089;50.022;7.604;2022-09-21T10:56:52;2.90;;;0.90;;
41343;SDS011;27089;50.022;7.604;2022-09-21T10:59:23;4.53;;;0.80;;
41343;SDS011;27089;50.022;7.604;2022-09-21T11:01:52;3.27;;;1.63;;
41343;SDS011;27089;50.022;7.604;2022-09-21T11:04:23;3.33;;;0.80;;
41343;SDS011;27089;50.022;7.604;2022-09-21T11:06:58;4.63;;;1.10;;
41343;SDS011;27089;50.022;7.604;2022-09-21T11:09:33;2.67;;;0.73;;
41343;SDS011;27089;50.022;7.604;2022-09-21T11:12:06;3.07;;;0.90;;
41343;SDS011;27089;50.022;7.604;2022-09-21T11:14:44;3.43;;;1.07;;
41343;SDS011;27089;50.022;7.604;2022-09-21T11:17:17;2.70;;;0.90;;
41343;SDS011;27089;50.022;7.604;2022-09-21T11:19:53;3.67;;;1.07;;
41343;SDS011;27089;50.022;7.604;2022-09-21T11:22:26;2.03;;;0.80;;
41343;SDS011;27089;50.022;7.604;2022-09-21T11:25:04;2.50;;;1.10;;
41343;SDS011;27089;50.022;7.604;2022-09-21T11:27:41;3.77;;;1.10;;
41343;SDS011;27089;50.022;7.604;2022-09-21T11:30:13;2.53;;;1.30;;
41343;SDS011;27089;50.022;7.604;2022-09-21T11:32:52;2.10;;;0.80;;
41343;SDS011;27089;50.022;7.604;2022-09-21T11:35:38;4.00;;;1.00;;
41343;SDS011;27089;50.022;7.604;2022-09-21T11:38:16;0.90;;;0.70;;
41343;SDS011;27089;50.022;7.604;2022-09-21T11:40:58;3.43;;;0.90;;
41343;SDS011;27089;50.022;7.604;2022-09-21T11:43:38;3.17;;;1.20;;
41343;SDS011;27089;50.022;7.604;2022-09-21T11:46:16;2.93;;;1.10;;
41343;SDS011;27089;50.022;7.604;2022-09-21T11:49:03;3.57;;;0.80;;
41343;SDS011;27089;50.022;7.604;2022-09-21T11:51:54;3.27;;;0.87;;
41343;SDS011;27089;50.022;7.604;2022-09-21T11:57:23;3.30;;;0.90;;
41343;SDS011;27089;50.022;7.604;2022-09-21T12:00:02;4.67;;;1.00;;
41343;SDS011;27089;50.022;7.604;2022-09-21T12:05:37;2.50;;;1.23;;
41343;SDS011;27089;50.022;7.604;2022-09-21T12:08:15;2.80;;;1.10;;
41343;SDS011;27089;50.022;7.604;2022-09-21T12:10:56;1.77;;;0.90;;
41343;SDS011;27089;50.022;7.604;2022-09-21T12:13:31;3.60;;;0.90;;
41343;SDS011;27089;50.022;7.604;2022-09-21T12:16:07;1.37;;;0.90;;
41343;SDS011;27089;50.022;7.604;2022-09-21T12:18:40;5.50;;;1.27;;
41343;SDS011;27089;50.022;7.604;2022-09-21T12:21:14;3.33;;;0.93;;
41343;SDS011;27089;50.022;7.604;2022-09-21T12:23:47;2.93;;;0.97;;
41343;SDS011;27089;50.022;7.604;2022-09-21T12:26:19;2.53;;;0.90;;
41343;SDS011;27089;50.022;7.604;2022-09-21T12:28:52;1.83;;;0.90;;
41343;SDS011;27089;50.022;7.604;2022-09-21T12:31:25;2.63;;;1.00;;
41343;SDS011;27089;50.022;7.604;2022-09-21T12:33:57;2.83;;;1.00;;
41343;SDS011;27089;50.022;7.604;2022-09-21T12:36:30;1.50;;;0.80;;
41343;SDS011;27089;50.022;7.604;2022-09-21T12:39:02;2.87;;;0.80;;
41343;SDS011;27089;50.022;7.604;2022-09-21T12:41:38;1.53;;;0.90;;
41343;SDS011;27089;50.022;7.604;2022-09-21T12:44:13;2.17;;;1.00;;
41343;SDS011;27089;50.022;7.604;2022-09-21T12:46:46;2.90;;;1.07;;
41343;SDS011;27089;50.022;7.604;2022-09-21T12:49:19;2.17;;;1.00;;
41343;SDS011;27089;50.022;7.604;2022-09-21T12:51:52;2.90;;;0.90;;
41343;SDS011;27089;50.022;7.604;2022-09-21T12:54:25;2.50;;;0.70;;
41343;SDS011;27089;50.022;7.604;2022-09-21T12:57:03;1.63;;;0.87;;
41343;SDS011;27089;50.022;7.604;2022-09-21T12:59:42;1.40;;;1.00;;
41343;SDS011;27089;50.022;7.604;2022-09-21T13:02:16;1.40;;;0.80;;
41343;SDS011;27089;50.022;7.604;2022-09-21T13:04:49;1.80;;;1.00;;
41343;SDS011;27089;50.022;7.604;2022-09-21T13:10:15;1.93;;;1.00;;
41343;SDS011;27089;50.022;7.604;2022-09-21T13:12:46;2.50;;;1.50;;
41343;SDS011;27089;50.022;7.604;2022-09-21T13:15:22;1.80;;;1.03;;
41343;SDS011;27089;50.022;7.604;2022-09-21T13:17:58;4.13;;;1.07;;
41343;SDS011;27089;50.022;7.604;2022-09-21T13:20:31;1.97;;;0.97;;
41343;SDS011;27089;50.022;7.604;2022-09-21T13:23:00;3.13;;;1.10;;
41343;SDS011;27089;50.022;7.604;2022-09-21T13:25:28;8.40;;;1.77;;
41343;SDS011;27089;50.022;7.604;2022-09-21T13:28:00;3.37;;;1.20;;
41343;SDS011;27089;50.022;7.604;2022-09-21T13:30:34;3.33;;;1.47;;
41343;SDS011;27089;50.022;7.604;2022-09-21T13:33:04;3.23;;;1.60;;
41343;SDS011;27089;50.022;7.604;2022-09-21T13:36:02;3.97;;;1.73;;
41343;SDS011;27089;50.022;7.604;2022-09-21T13:41:28;3.23;;;1.07;;
41343;SDS011;27089;50.022;7.604;2022-09-21T13:43:59;5.67;;;2.47;;
41343;SDS011;27089;50.022;7.604;2022-09-21T13:49:31;4.57;;;0.80;;
41343;SDS011;27089;50.022;7.604;2022-09-21T13:52:06;3.90;;;1.47;;
41343;SDS011;27089;50.022;7.604;2022-09-21T13:54:45;2.43;;;0.80;;
41343;SDS011;27089;50.022;7.604;2022-09-21T13:57:17;1.67;;;0.70;;
41343;SDS011;27089;50.022;7.604;2022-09-21T13:59:46;2.07;;;1.20;;
41343;SDS011;27089;50.022;7.604;2022-09-21T14:02:29;2.37;;;0.87;;
41343;SDS011;27089;50.022;7.604;2022-09-21T14:05:00;2.27;;;1.00;;
41343;SDS011;27089;50.022;7.604;2022-09-21T14:07:32;3.40;;;1.03;;
41343;SDS011;27089;50.022;7.604;2022-09-21T14:10:01;1.10;;;0.87;;
41343;SDS011;27089;50.022;7.604;2022-09-21T14:12:31;3.73;;;1.00;;
41343;SDS011;27089;50.022;7.604;2022-09-21T14:15:22;1.83;;;0.80;;
41343;SDS011;27089;50.022;7.604;2022-09-21T14:21:15;2.67;;;0.80;;
41343;SDS011;27089;50.022;7.604;2022-09-21T14:26:35;2.30;;;0.80;;
41343;SDS011;27089;50.022;7.604;2022-09-21T14:29:14;3.17;;;1.53;;
41343;SDS011;27089;50.022;7.604;2022-09-21T14:31:46;4.33;;;1.70;;
41343;SDS011;27089;50.022;7.604;2022-09-21T14:34:17;0.97;;;0.80;;
41343;SDS011;27089;50.022;7.604;2022-09-21T14:36:49;3.87;;;1.53;;
41343;SDS011;27089;50.022;7.604;2022-09-21T14:39:20;2.03;;;1.23;;
41343;SDS011;27089;50.022;7.604;2022-09-21T14:41:51;2.37;;;1.47;;
41343;SDS011;27089;50.022;7.604;2022-09-21T14:44:21;2.67;;;1.23;;
41343;SDS011;27089;50.022;7.604;2022-09-21T14:47:18;1.83;;;1.20;;
41343;SDS011;27089;50.022;7.604;2022-09-21T14:50:11;3.33;;;1.30;;
41343;SDS011;27089;50.022;7.604;2022-09-21T14:52:51;8.33;;;4.10;;
41343;SDS011;27089;50.022;7.604;2022-09-21T14:55:29;2.07;;;1.37;;
41343;SDS011;27089;50.022;7.604;2022-09-21T14:58:15;2.73;;;1.47;;
41343;SDS011;27089;50.022;7.604;2022-09-21T15:00:52;4.10;;;1.30;;
41343;SDS011;27089;50.022;7.604;2022-09-21T15:06:28;2.67;;;1.00;;
41343;SDS011;27089;50.022;7.604;2022-09-21T15:09:24;8.17;;;6.03;;
41343;SDS011;27089;50.022;7.604;2022-09-21T15:12:37;4.03;;;1.87;;
41343;SDS011;27089;50.022;7.604;2022-09-21T15:15:18;3.17;;;0.70;;
41343;SDS011;27089;50.022;7.604;2022-09-21T15:17:54;2.10;;;0.77;;
41343;SDS011;27089;50.022;7.604;2022-09-21T15:20:23;1.60;;;1.00;;
41343;SDS011;27089;50.022;7.604;2022-09-21T15:22:54;2.60;;;0.60;;
41343;SDS011;27089;50.022;7.604;2022-09-21T15:25:22;1.30;;;0.60;;
41343;SDS011;27089;50.022;7.604;2022-09-21T15:27:51;1.00;;;0.60;;
41343;SDS011;27089;50.022;7.604;2022-09-21T15:30:20;1.57;;;0.60;;
41343;SDS011;27089;50.022;7.604;2022-09-21T15:32:50;3.40;;;0.47;;
41343;SDS011;27089;50.022;7.604;2022-09-21T15:35:19;1.23;;;0.60;;
41343;SDS011;27089;50.022;7.604;2022-09-21T15:37:49;1.43;;;0.70;;
41343;SDS011;27089;50.022;7.604;2022-09-21T15:40:20;0.50;;;0.50;;
41343;SDS011;27089;50.022;7.604;2022-09-21T15:42:59;3.00;;;0.80;;
41343;SDS011;27089;50.022;7.604;2022-09-21T15:45:29;1.60;;;0.87;;
41343;SDS011;27089;50.022;7.604;2022-09-21T15:47:58;3.03;;;1.97;;